sensor_id;sensor_type;location;lat;lon;timestamp;P1;durP1;ratioP1;P2;durP2;ratioP2
76818;SDS011;65772;51.096;17.006;2023-06-14T00:00:49;6.80;;;4.10;;
76818;SDS011;65772;51.096;17.006;2023-06-14T00:03:20;6.80;;;3.70;;
76818;SDS011;65772;51.096;17.006;2023-06-14T00:05:52;6.00;;;3.80;;
76818;SDS011;65772;51.096;17.006;2023-06-14T00:08:23;6.40;;;4.00;;
76818;SDS011;65772;51.096;17.006;2023-06-14T00:10:54;5.90;;;3.30;;
76818;SDS011;65772;51.096;17.006;2023-06-14T00:13:24;7.00;;;3.90;;
76818;SDS011;65772;51.096;17.006;2023-06-14T00:15:55;6.10;;;3.90;;
76818;SDS011;65772;51.096;17.006;2023-06-14T00:18:26;6.90;;;3.80;;
76818;SDS011;65772;51.096;17.006;2023-06-14T00:20:57;7.20;;;3.80;;
76818;SDS011;65772;51.096;17.006;2023-06-14T00:23:29;7.50;;;3.80;;
76818;SDS011;65772;51.096;17.006;2023-06-14T00:26:00;7.00;;;3.70;;
76818;SDS011;65772;51.096;17.006;2023-06-14T00:28:31;5.50;;;3.40;;
76818;SDS011;65772;51.096;17.006;2023-06-14T00:31:01;6.00;;;4.10;;
76818;SDS011;65772;51.096;17.006;2023-06-14T00:33:32;5.80;;;3.80;;
76818;SDS011;65772;51.096;17.006;2023-06-14T00:36:03;6.60;;;3.80;;
76818;SDS011;65772;51.096;17.006;2023-06-14T00:38:34;7.00;;;4.10;;
76818;SDS011;65772;51.096;17.006;2023-06-14T00:41:04;7.80;;;3.90;;
76818;SDS011;65772;51.096;17.006;2023-06-14T00:43:35;6.90;;;3.60;;
76818;SDS011;65772;51.096;17.006;2023-06-14T00:46:05;5.90;;;3.50;;
76818;SDS011;65772;51.096;17.006;2023-06-14T00:48:37;8.40;;;3.80;;
76818;SDS011;65772;51.096;17.006;2023-06-14T00:51:09;7.60;;;3.90;;
76818;SDS011;65772;51.096;17.006;2023-06-14T00:53:40;8.20;;;4.10;;
76818;SDS011;65772;51.096;17.006;2023-06-14T00:56:15;7.00;;;3.90;;
76818;SDS011;65772;51.096;17.006;2023-06-14T00:58:50;6.30;;;3.60;;
76818;SDS011;65772;51.096;17.006;2023-06-14T01:01:22;5.80;;;4.00;;
76818;SDS011;65772;51.096;17.006;2023-06-14T01:03:52;6.30;;;3.80;;
76818;SDS011;65772;51.096;17.006;2023-06-14T01:06:23;6.50;;;4.40;;
76818;SDS011;65772;51.096;17.006;2023-06-14T01:09:06;6.30;;;4.10;;
76818;SDS011;65772;51.096;17.006;2023-06-14T01:11:46;6.20;;;3.70;;
76818;SDS011;65772;51.096;17.006;2023-06-14T01:14:20;8.90;;;4.20;;
76818;SDS011;65772;51.096;17.006;2023-06-14T01:16:53;5.80;;;3.80;;
76818;SDS011;65772;51.096;17.006;2023-06-14T01:19:25;5.60;;;3.70;;
76818;SDS011;65772;51.096;17.006;2023-06-14T01:21:57;8.80;;;4.20;;
76818;SDS011;65772;51.096;17.006;2023-06-14T01:24:31;7.70;;;4.20;;
76818;SDS011;65772;51.096;17.006;2023-06-14T01:29:32;7.50;;;4.20;;
76818;SDS011;65772;51.096;17.006;2023-06-14T01:32:04;8.30;;;4.50;;
76818;SDS011;65772;51.096;17.006;2023-06-14T01:34:36;8.30;;;4.20;;
76818;SDS011;65772;51.096;17.006;2023-06-14T01:37:07;7.00;;;3.90;;
76818;SDS011;65772;51.096;17.006;2023-06-14T01:42:08;6.20;;;4.00;;
76818;SDS011;65772;51.096;17.006;2023-06-14T01:44:41;7.00;;;4.10;;
76818;SDS011;65772;51.096;17.006;2023-06-14T01:47:13;6.40;;;4.10;;
76818;SDS011;65772;51.096;17.006;2023-06-14T01:49:44;7.70;;;4.10;;
76818;SDS011;65772;51.096;17.006;2023-06-14T01:52:16;6.60;;;3.90;;
76818;SDS011;65772;51.096;17.006;2023-06-14T01:54:47;7.80;;;4.40;;
76818;SDS011;65772;51.096;17.006;2023-06-14T01:57:18;7.10;;;4.10;;
76818;SDS011;65772;51.096;17.006;2023-06-14T01:59:50;7.30;;;4.40;;
76818;SDS011;65772;51.096;17.006;2023-06-14T02:02:20;6.80;;;4.30;;
76818;SDS011;65772;51.096;17.006;2023-06-14T02:04:51;6.80;;;4.40;;
76818;SDS011;65772;51.096;17.006;2023-06-14T02:07:25;6.80;;;4.60;;
76818;SDS011;65772;51.096;17.006;2023-06-14T02:09:55;7.00;;;4.40;;
76818;SDS011;65772;51.096;17.006;2023-06-14T02:12:26;6.60;;;4.30;;
76818;SDS011;65772;51.096;17.006;2023-06-14T02:14:58;7.00;;;4.50;;
76818;SDS011;65772;51.096;17.006;2023-06-14T02:17:29;7.10;;;4.50;;
76818;SDS011;65772;51.096;17.006;2023-06-14T02:20:00;8.20;;;4.80;;
76818;SDS011;65772;51.096;17.006;2023-06-14T02:22:32;9.20;;;4.50;;
76818;SDS011;65772;51.096;17.006;2023-06-14T02:25:03;9.20;;;5.10;;
76818;SDS011;65772;51.096;17.006;2023-06-14T02:27:35;9.10;;;4.70;;
76818;SDS011;65772;51.096;17.006;2023-06-14T02:30:07;8.30;;;5.00;;
76818;SDS011;65772;51.096;17.006;2023-06-14T02:32:38;7.50;;;5.10;;
76818;SDS011;65772;51.096;17.006;2023-06-14T02:35:13;7.60;;;4.90;;
76818;SDS011;65772;51.096;17.006;2023-06-14T02:37:43;10.10;;;5.70;;
76818;SDS011;65772;51.096;17.006;2023-06-14T02:40:15;6.80;;;4.60;;
76818;SDS011;65772;51.096;17.006;2023-06-14T02:42:45;8.70;;;5.00;;
76818;SDS011;65772;51.096;17.006;2023-06-14T02:45:17;7.90;;;5.10;;
76818;SDS011;65772;51.096;17.006;2023-06-14T02:50:18;8.30;;;4.80;;
76818;SDS011;65772;51.096;17.006;2023-06-14T02:52:49;7.80;;;5.30;;
76818;SDS011;65772;51.096;17.006;2023-06-14T02:55:23;9.60;;;5.90;;
76818;SDS011;65772;51.096;17.006;2023-06-14T02:57:54;8.00;;;5.10;;
76818;SDS011;65772;51.096;17.006;2023-06-14T03:00:26;9.10;;;5.00;;
76818;SDS011;65772;51.096;17.006;2023-06-14T03:02:58;7.80;;;4.80;;
76818;SDS011;65772;51.096;17.006;2023-06-14T03:07:58;6.50;;;4.10;;
76818;SDS011;65772;51.096;17.006;2023-06-14T03:10:30;9.40;;;5.40;;
76818;SDS011;65772;51.096;17.006;2023-06-14T03:13:02;9.00;;;4.90;;
76818;SDS011;65772;51.096;17.006;2023-06-14T03:15:32;9.70;;;5.40;;
76818;SDS011;65772;51.096;17.006;2023-06-14T03:18:03;7.80;;;5.00;;
76818;SDS011;65772;51.096;17.006;2023-06-14T03:20:36;9.30;;;5.10;;
76818;SDS011;65772;51.096;17.006;2023-06-14T03:23:07;8.70;;;4.70;;
76818;SDS011;65772;51.096;17.006;2023-06-14T03:25:38;9.30;;;5.10;;
76818;SDS011;65772;51.096;17.006;2023-06-14T03:28:11;7.30;;;4.90;;
76818;SDS011;65772;51.096;17.006;2023-06-14T03:30:42;9.30;;;5.00;;
76818;SDS011;65772;51.096;17.006;2023-06-14T03:33:13;8.20;;;5.10;;
76818;SDS011;65772;51.096;17.006;2023-06-14T03:38:15;7.80;;;4.70;;
76818;SDS011;65772;51.096;17.006;2023-06-14T03:40:45;7.90;;;4.60;;
76818;SDS011;65772;51.096;17.006;2023-06-14T03:43:16;7.10;;;4.50;;
76818;SDS011;65772;51.096;17.006;2023-06-14T03:45:47;7.40;;;4.60;;
76818;SDS011;65772;51.096;17.006;2023-06-14T03:48:18;9.90;;;5.30;;
76818;SDS011;65772;51.096;17.006;2023-06-14T03:50:49;8.90;;;4.80;;
76818;SDS011;65772;51.096;17.006;2023-06-14T03:53:21;8.20;;;5.00;;
76818;SDS011;65772;51.096;17.006;2023-06-14T03:55:53;6.70;;;4.40;;
76818;SDS011;65772;51.096;17.006;2023-06-14T03:58:27;7.40;;;5.20;;
76818;SDS011;65772;51.096;17.006;2023-06-14T04:00:58;11.70;;;5.00;;
76818;SDS011;65772;51.096;17.006;2023-06-14T04:03:31;8.80;;;4.50;;
76818;SDS011;65772;51.096;17.006;2023-06-14T04:08:33;8.70;;;4.60;;
76818;SDS011;65772;51.096;17.006;2023-06-14T04:11:03;11.70;;;5.20;;
76818;SDS011;65772;51.096;17.006;2023-06-14T04:13:34;8.70;;;5.10;;
76818;SDS011;65772;51.096;17.006;2023-06-14T04:16:07;12.90;;;7.70;;
76818;SDS011;65772;51.096;17.006;2023-06-14T04:18:38;8.00;;;5.20;;
76818;SDS011;65772;51.096;17.006;2023-06-14T04:21:08;15.80;;;9.30;;
76818;SDS011;65772;51.096;17.006;2023-06-14T04:23:39;12.10;;;6.70;;
76818;SDS011;65772;51.096;17.006;2023-06-14T04:26:13;10.20;;;5.20;;
76818;SDS011;65772;51.096;17.006;2023-06-14T04:28:46;9.00;;;4.70;;
76818;SDS011;65772;51.096;17.006;2023-06-14T04:31:18;7.00;;;4.60;;
76818;SDS011;65772;51.096;17.006;2023-06-14T04:33:49;8.70;;;4.50;;
76818;SDS011;65772;51.096;17.006;2023-06-14T04:36:22;7.40;;;4.50;;
76818;SDS011;65772;51.096;17.006;2023-06-14T04:38:55;10.50;;;5.10;;
76818;SDS011;65772;51.096;17.006;2023-06-14T04:43:59;17.40;;;10.00;;
76818;SDS011;65772;51.096;17.006;2023-06-14T04:46:35;10.30;;;5.50;;
76818;SDS011;65772;51.096;17.006;2023-06-14T04:49:14;7.20;;;4.60;;
76818;SDS011;65772;51.096;17.006;2023-06-14T04:51:45;8.00;;;4.90;;
76818;SDS011;65772;51.096;17.006;2023-06-14T04:54:18;10.50;;;5.10;;
76818;SDS011;65772;51.096;17.006;2023-06-14T04:56:49;8.70;;;4.80;;
76818;SDS011;65772;51.096;17.006;2023-06-14T04:59:22;9.50;;;4.60;;
76818;SDS011;65772;51.096;17.006;2023-06-14T05:01:53;9.70;;;4.80;;
76818;SDS011;65772;51.096;17.006;2023-06-14T05:04:24;10.30;;;5.20;;
76818;SDS011;65772;51.096;17.006;2023-06-14T05:06:56;10.10;;;5.20;;
76818;SDS011;65772;51.096;17.006;2023-06-14T05:09:29;7.20;;;4.90;;
76818;SDS011;65772;51.096;17.006;2023-06-14T05:12:00;8.70;;;5.20;;
76818;SDS011;65772;51.096;17.006;2023-06-14T05:14:31;8.00;;;4.80;;
76818;SDS011;65772;51.096;17.006;2023-06-14T05:17:02;21.20;;;7.40;;
76818;SDS011;65772;51.096;17.006;2023-06-14T05:19:33;19.70;;;7.40;;
76818;SDS011;65772;51.096;17.006;2023-06-14T05:22:04;17.90;;;6.50;;
76818;SDS011;65772;51.096;17.006;2023-06-14T05:24:35;10.10;;;5.90;;
76818;SDS011;65772;51.096;17.006;2023-06-14T05:27:06;12.20;;;6.50;;
76818;SDS011;65772;51.096;17.006;2023-06-14T05:29:36;11.40;;;7.10;;
76818;SDS011;65772;51.096;17.006;2023-06-14T05:32:08;12.50;;;7.70;;
76818;SDS011;65772;51.096;17.006;2023-06-14T05:34:39;12.70;;;7.30;;
76818;SDS011;65772;51.096;17.006;2023-06-14T05:37:09;12.50;;;7.10;;
76818;SDS011;65772;51.096;17.006;2023-06-14T05:39:41;10.70;;;6.20;;
76818;SDS011;65772;51.096;17.006;2023-06-14T05:42:11;18.80;;;7.10;;
76818;SDS011;65772;51.096;17.006;2023-06-14T05:44:42;12.70;;;7.80;;
76818;SDS011;65772;51.096;17.006;2023-06-14T05:47:12;14.90;;;7.70;;
76818;SDS011;65772;51.096;17.006;2023-06-14T05:49:43;19.30;;;8.10;;
76818;SDS011;65772;51.096;17.006;2023-06-14T05:52:13;14.70;;;9.00;;
76818;SDS011;65772;51.096;17.006;2023-06-14T05:54:44;13.80;;;8.70;;
76818;SDS011;65772;51.096;17.006;2023-06-14T05:57:15;14.80;;;9.10;;
76818;SDS011;65772;51.096;17.006;2023-06-14T05:59:45;14.20;;;8.20;;
76818;SDS011;65772;51.096;17.006;2023-06-14T06:02:16;14.20;;;7.90;;
76818;SDS011;65772;51.096;17.006;2023-06-14T06:04:47;13.40;;;8.10;;
76818;SDS011;65772;51.096;17.006;2023-06-14T06:07:17;14.00;;;9.10;;
76818;SDS011;65772;51.096;17.006;2023-06-14T06:09:48;13.50;;;8.30;;
76818;SDS011;65772;51.096;17.006;2023-06-14T06:12:18;15.90;;;9.10;;
76818;SDS011;65772;51.096;17.006;2023-06-14T06:14:49;14.30;;;8.30;;
76818;SDS011;65772;51.096;17.006;2023-06-14T06:17:19;13.00;;;8.80;;
76818;SDS011;65772;51.096;17.006;2023-06-14T06:19:50;12.60;;;7.80;;
76818;SDS011;65772;51.096;17.006;2023-06-14T06:22:21;12.20;;;8.30;;
76818;SDS011;65772;51.096;17.006;2023-06-14T06:24:52;13.60;;;8.70;;
76818;SDS011;65772;51.096;17.006;2023-06-14T06:27:22;13.50;;;8.70;;
76818;SDS011;65772;51.096;17.006;2023-06-14T06:29:53;12.70;;;8.50;;
76818;SDS011;65772;51.096;17.006;2023-06-14T06:32:23;12.90;;;7.80;;
76818;SDS011;65772;51.096;17.006;2023-06-14T06:34:54;15.10;;;8.80;;
76818;SDS011;65772;51.096;17.006;2023-06-14T06:37:27;14.30;;;8.50;;
76818;SDS011;65772;51.096;17.006;2023-06-14T06:39:58;18.50;;;9.20;;
76818;SDS011;65772;51.096;17.006;2023-06-14T06:42:28;14.80;;;9.20;;
76818;SDS011;65772;51.096;17.006;2023-06-14T06:45:03;15.70;;;9.90;;
76818;SDS011;65772;51.096;17.006;2023-06-14T06:50:05;17.00;;;8.70;;
76818;SDS011;65772;51.096;17.006;2023-06-14T06:52:36;15.50;;;8.60;;
76818;SDS011;65772;51.096;17.006;2023-06-14T06:55:08;15.30;;;9.60;;
76818;SDS011;65772;51.096;17.006;2023-06-14T06:57:41;15.90;;;9.00;;
76818;SDS011;65772;51.096;17.006;2023-06-14T07:00:12;14.70;;;9.30;;
76818;SDS011;65772;51.096;17.006;2023-06-14T07:02:44;21.50;;;11.40;;
76818;SDS011;65772;51.096;17.006;2023-06-14T07:05:15;17.50;;;10.00;;
76818;SDS011;65772;51.096;17.006;2023-06-14T07:07:46;15.10;;;9.90;;
76818;SDS011;65772;51.096;17.006;2023-06-14T07:10:17;18.40;;;10.50;;
76818;SDS011;65772;51.096;17.006;2023-06-14T07:12:48;17.10;;;9.90;;
76818;SDS011;65772;51.096;17.006;2023-06-14T07:15:18;14.70;;;10.00;;
76818;SDS011;65772;51.096;17.006;2023-06-14T07:17:49;17.90;;;10.20;;
76818;SDS011;65772;51.096;17.006;2023-06-14T07:20:21;16.90;;;9.80;;
76818;SDS011;65772;51.096;17.006;2023-06-14T07:22:52;16.50;;;10.80;;
76818;SDS011;65772;51.096;17.006;2023-06-14T07:25:23;17.50;;;9.30;;
76818;SDS011;65772;51.096;17.006;2023-06-14T07:27:54;15.40;;;10.60;;
76818;SDS011;65772;51.096;17.006;2023-06-14T07:30:24;15.40;;;9.70;;
76818;SDS011;65772;51.096;17.006;2023-06-14T07:32:57;18.70;;;10.10;;
76818;SDS011;65772;51.096;17.006;2023-06-14T07:35:28;18.10;;;9.90;;
76818;SDS011;65772;51.096;17.006;2023-06-14T07:37:58;18.50;;;10.90;;
76818;SDS011;65772;51.096;17.006;2023-06-14T07:40:29;15.70;;;10.20;;
76818;SDS011;65772;51.096;17.006;2023-06-14T07:42:59;15.10;;;10.10;;
76818;SDS011;65772;51.096;17.006;2023-06-14T07:45:30;19.10;;;11.00;;
76818;SDS011;65772;51.096;17.006;2023-06-14T07:48:00;19.50;;;9.70;;
76818;SDS011;65772;51.096;17.006;2023-06-14T07:50:32;16.70;;;9.90;;
76818;SDS011;65772;51.096;17.006;2023-06-14T07:53:02;14.80;;;9.70;;
76818;SDS011;65772;51.096;17.006;2023-06-14T07:55:33;14.80;;;9.90;;
76818;SDS011;65772;51.096;17.006;2023-06-14T07:58:20;15.00;;;8.60;;
76818;SDS011;65772;51.096;17.006;2023-06-14T08:00:50;17.50;;;9.60;;
76818;SDS011;65772;51.096;17.006;2023-06-14T08:03:21;14.50;;;9.70;;
76818;SDS011;65772;51.096;17.006;2023-06-14T08:05:53;14.20;;;8.90;;
76818;SDS011;65772;51.096;17.006;2023-06-14T08:08:23;13.70;;;9.60;;
76818;SDS011;65772;51.096;17.006;2023-06-14T08:10:54;14.80;;;8.70;;
76818;SDS011;65772;51.096;17.006;2023-06-14T08:13:24;13.30;;;8.70;;
76818;SDS011;65772;51.096;17.006;2023-06-14T08:15:55;16.00;;;10.30;;
76818;SDS011;65772;51.096;17.006;2023-06-14T08:18:26;13.60;;;9.30;;
76818;SDS011;65772;51.096;17.006;2023-06-14T08:23:27;14.90;;;9.00;;
76818;SDS011;65772;51.096;17.006;2023-06-14T08:25:58;14.20;;;8.90;;
76818;SDS011;65772;51.096;17.006;2023-06-14T08:28:31;13.90;;;9.50;;
76818;SDS011;65772;51.096;17.006;2023-06-14T08:31:02;13.50;;;8.90;;
76818;SDS011;65772;51.096;17.006;2023-06-14T08:33:32;13.90;;;8.40;;
76818;SDS011;65772;51.096;17.006;2023-06-14T08:36:04;14.70;;;8.40;;
76818;SDS011;65772;51.096;17.006;2023-06-14T08:38:34;14.00;;;9.90;;
76818;SDS011;65772;51.096;17.006;2023-06-14T08:41:05;12.20;;;8.10;;
76818;SDS011;65772;51.096;17.006;2023-06-14T08:43:36;13.80;;;8.30;;
76818;SDS011;65772;51.096;17.006;2023-06-14T08:46:07;13.70;;;8.70;;
76818;SDS011;65772;51.096;17.006;2023-06-14T08:48:39;15.30;;;9.20;;
76818;SDS011;65772;51.096;17.006;2023-06-14T08:51:11;12.70;;;8.60;;
76818;SDS011;65772;51.096;17.006;2023-06-14T08:53:43;12.50;;;7.30;;
76818;SDS011;65772;51.096;17.006;2023-06-14T08:56:18;12.00;;;7.70;;
76818;SDS011;65772;51.096;17.006;2023-06-14T08:58:53;14.60;;;8.20;;
76818;SDS011;65772;51.096;17.006;2023-06-14T09:01:25;13.90;;;7.70;;
76818;SDS011;65772;51.096;17.006;2023-06-14T09:03:55;14.50;;;8.80;;
76818;SDS011;65772;51.096;17.006;2023-06-14T09:06:27;14.30;;;8.80;;
76818;SDS011;65772;51.096;17.006;2023-06-14T09:08:58;17.30;;;10.60;;
76818;SDS011;65772;51.096;17.006;2023-06-14T09:11:29;16.80;;;9.60;;
76818;SDS011;65772;51.096;17.006;2023-06-14T09:14:00;13.80;;;8.00;;
76818;SDS011;65772;51.096;17.006;2023-06-14T09:16:33;11.70;;;7.50;;
76818;SDS011;65772;51.096;17.006;2023-06-14T09:19:04;12.60;;;7.70;;
76818;SDS011;65772;51.096;17.006;2023-06-14T09:21:35;9.30;;;6.40;;
76818;SDS011;65772;51.096;17.006;2023-06-14T09:24:06;14.30;;;8.10;;
76818;SDS011;65772;51.096;17.006;2023-06-14T09:26:44;12.40;;;6.70;;
76818;SDS011;65772;51.096;17.006;2023-06-14T09:29:17;10.60;;;7.00;;
76818;SDS011;65772;51.096;17.006;2023-06-14T09:31:48;10.40;;;6.80;;
76818;SDS011;65772;51.096;17.006;2023-06-14T09:34:19;11.00;;;6.60;;
76818;SDS011;65772;51.096;17.006;2023-06-14T09:36:51;13.20;;;7.60;;
76818;SDS011;65772;51.096;17.006;2023-06-14T09:39:22;12.90;;;7.20;;
76818;SDS011;65772;51.096;17.006;2023-06-14T09:41:55;10.70;;;6.40;;
76818;SDS011;65772;51.096;17.006;2023-06-14T09:44:25;11.50;;;6.60;;
76818;SDS011;65772;51.096;17.006;2023-06-14T09:46:57;10.40;;;6.70;;
76818;SDS011;65772;51.096;17.006;2023-06-14T09:49:28;9.80;;;6.30;;
76818;SDS011;65772;51.096;17.006;2023-06-14T09:52:01;11.30;;;6.60;;
76818;SDS011;65772;51.096;17.006;2023-06-14T09:54:33;12.10;;;5.90;;
76818;SDS011;65772;51.096;17.006;2023-06-14T09:57:10;10.20;;;6.10;;
76818;SDS011;65772;51.096;17.006;2023-06-14T09:59:42;10.50;;;6.20;;
76818;SDS011;65772;51.096;17.006;2023-06-14T10:02:18;10.90;;;6.50;;
76818;SDS011;65772;51.096;17.006;2023-06-14T10:04:55;9.40;;;6.00;;
76818;SDS011;65772;51.096;17.006;2023-06-14T10:07:34;9.80;;;6.10;;
76818;SDS011;65772;51.096;17.006;2023-06-14T10:10:08;10.00;;;5.50;;
76818;SDS011;65772;51.096;17.006;2023-06-14T10:12:39;8.00;;;5.30;;
76818;SDS011;65772;51.096;17.006;2023-06-14T10:15:12;8.90;;;5.10;;
76818;SDS011;65772;51.096;17.006;2023-06-14T10:17:50;10.30;;;5.40;;
76818;SDS011;65772;51.096;17.006;2023-06-14T10:20:27;8.50;;;5.20;;
76818;SDS011;65772;51.096;17.006;2023-06-14T10:23:03;8.90;;;5.80;;
76818;SDS011;65772;51.096;17.006;2023-06-14T10:25:36;11.00;;;5.40;;
76818;SDS011;65772;51.096;17.006;2023-06-14T10:28:17;10.90;;;6.30;;
76818;SDS011;65772;51.096;17.006;2023-06-14T10:31:02;10.30;;;5.50;;
76818;SDS011;65772;51.096;17.006;2023-06-14T10:33:39;8.60;;;6.00;;
76818;SDS011;65772;51.096;17.006;2023-06-14T10:36:25;9.80;;;4.90;;
76818;SDS011;65772;51.096;17.006;2023-06-14T10:38:59;8.80;;;5.00;;
76818;SDS011;65772;51.096;17.006;2023-06-14T10:41:34;11.70;;;5.40;;
76818;SDS011;65772;51.096;17.006;2023-06-14T10:49:41;7.30;;;4.30;;
76818;SDS011;65772;51.096;17.006;2023-06-14T10:52:14;6.50;;;4.30;;
76818;SDS011;65772;51.096;17.006;2023-06-14T10:57:44;6.00;;;4.30;;
76818;SDS011;65772;51.096;17.006;2023-06-14T11:00:20;8.10;;;3.90;;
76818;SDS011;65772;51.096;17.006;2023-06-14T11:03:09;5.80;;;4.10;;
76818;SDS011;65772;51.096;17.006;2023-06-14T11:06:12;7.90;;;4.70;;
76818;SDS011;65772;51.096;17.006;2023-06-14T11:12:00;8.00;;;4.70;;
76818;SDS011;65772;51.096;17.006;2023-06-14T11:14:32;6.40;;;4.40;;
76818;SDS011;65772;51.096;17.006;2023-06-14T11:17:03;6.40;;;4.40;;
76818;SDS011;65772;51.096;17.006;2023-06-14T11:19:35;8.00;;;4.30;;
76818;SDS011;65772;51.096;17.006;2023-06-14T11:22:05;6.20;;;4.10;;
76818;SDS011;65772;51.096;17.006;2023-06-14T11:24:37;6.80;;;4.20;;
76818;SDS011;65772;51.096;17.006;2023-06-14T11:27:07;11.20;;;4.80;;
76818;SDS011;65772;51.096;17.006;2023-06-14T11:29:39;9.80;;;4.50;;
76818;SDS011;65772;51.096;17.006;2023-06-14T11:32:18;8.80;;;4.80;;
76818;SDS011;65772;51.096;17.006;2023-06-14T11:34:49;22.90;;;15.60;;
76818;SDS011;65772;51.096;17.006;2023-06-14T11:37:19;11.10;;;7.00;;
76818;SDS011;65772;51.096;17.006;2023-06-14T11:39:52;8.50;;;4.60;;
76818;SDS011;65772;51.096;17.006;2023-06-14T11:42:24;8.70;;;3.90;;
76818;SDS011;65772;51.096;17.006;2023-06-14T11:44:57;8.00;;;4.10;;
76818;SDS011;65772;51.096;17.006;2023-06-14T11:47:37;9.70;;;5.00;;
76818;SDS011;65772;51.096;17.006;2023-06-14T11:50:09;7.50;;;5.00;;
76818;SDS011;65772;51.096;17.006;2023-06-14T11:52:39;8.70;;;4.60;;
76818;SDS011;65772;51.096;17.006;2023-06-14T11:55:10;8.20;;;4.30;;
76818;SDS011;65772;51.096;17.006;2023-06-14T11:57:41;7.20;;;4.30;;
76818;SDS011;65772;51.096;17.006;2023-06-14T12:00:13;6.00;;;3.70;;
76818;SDS011;65772;51.096;17.006;2023-06-14T12:02:53;15.90;;;11.10;;
76818;SDS011;65772;51.096;17.006;2023-06-14T12:05:25;8.70;;;5.30;;
76818;SDS011;65772;51.096;17.006;2023-06-14T12:07:59;8.30;;;4.60;;
76818;SDS011;65772;51.096;17.006;2023-06-14T12:10:30;7.40;;;4.00;;
76818;SDS011;65772;51.096;17.006;2023-06-14T12:13:11;7.20;;;4.00;;
76818;SDS011;65772;51.096;17.006;2023-06-14T12:15:45;7.70;;;3.90;;
76818;SDS011;65772;51.096;17.006;2023-06-14T12:18:32;6.20;;;3.90;;
76818;SDS011;65772;51.096;17.006;2023-06-14T12:21:05;5.70;;;4.30;;
76818;SDS011;65772;51.096;17.006;2023-06-14T12:23:39;6.10;;;4.00;;
76818;SDS011;65772;51.096;17.006;2023-06-14T12:26:14;6.30;;;3.30;;
76818;SDS011;65772;51.096;17.006;2023-06-14T12:28:45;9.90;;;5.50;;
76818;SDS011;65772;51.096;17.006;2023-06-14T12:31:16;17.90;;;8.90;;
76818;SDS011;65772;51.096;17.006;2023-06-14T12:33:47;10.50;;;4.80;;
76818;SDS011;65772;51.096;17.006;2023-06-14T12:36:19;5.70;;;3.70;;
76818;SDS011;65772;51.096;17.006;2023-06-14T12:38:49;9.20;;;3.90;;
76818;SDS011;65772;51.096;17.006;2023-06-14T12:41:21;8.30;;;3.90;;
76818;SDS011;65772;51.096;17.006;2023-06-14T12:43:52;23.10;;;14.60;;
76818;SDS011;65772;51.096;17.006;2023-06-14T12:46:23;9.50;;;5.50;;
76818;SDS011;65772;51.096;17.006;2023-06-14T12:48:53;8.40;;;4.10;;
76818;SDS011;65772;51.096;17.006;2023-06-14T12:51:24;7.50;;;4.30;;
76818;SDS011;65772;51.096;17.006;2023-06-14T12:53:54;7.80;;;4.20;;
76818;SDS011;65772;51.096;17.006;2023-06-14T12:56:25;6.90;;;3.90;;
76818;SDS011;65772;51.096;17.006;2023-06-14T12:58:55;8.50;;;4.50;;
76818;SDS011;65772;51.096;17.006;2023-06-14T13:01:26;11.90;;;4.60;;
76818;SDS011;65772;51.096;17.006;2023-06-14T13:03:57;8.80;;;4.10;;
76818;SDS011;65772;51.096;17.006;2023-06-14T13:06:28;8.10;;;4.30;;
76818;SDS011;65772;51.096;17.006;2023-06-14T13:08:59;8.00;;;4.30;;
76818;SDS011;65772;51.096;17.006;2023-06-14T13:11:31;8.20;;;4.30;;
76818;SDS011;65772;51.096;17.006;2023-06-14T13:14:02;7.30;;;4.20;;
76818;SDS011;65772;51.096;17.006;2023-06-14T13:16:52;8.90;;;4.50;;
76818;SDS011;65772;51.096;17.006;2023-06-14T13:19:23;8.40;;;4.30;;
76818;SDS011;65772;51.096;17.006;2023-06-14T13:21:54;11.20;;;5.50;;
76818;SDS011;65772;51.096;17.006;2023-06-14T13:24:24;8.60;;;4.60;;
76818;SDS011;65772;51.096;17.006;2023-06-14T13:26:56;7.80;;;4.20;;
76818;SDS011;65772;51.096;17.006;2023-06-14T13:29:27;10.10;;;4.40;;
76818;SDS011;65772;51.096;17.006;2023-06-14T13:31:59;8.30;;;4.40;;
76818;SDS011;65772;51.096;17.006;2023-06-14T13:34:29;6.30;;;4.00;;
76818;SDS011;65772;51.096;17.006;2023-06-14T13:37:00;9.90;;;4.90;;
76818;SDS011;65772;51.096;17.006;2023-06-14T13:39:30;14.80;;;8.10;;
76818;SDS011;65772;51.096;17.006;2023-06-14T13:42:01;8.70;;;5.90;;
76818;SDS011;65772;51.096;17.006;2023-06-14T13:44:32;8.40;;;4.30;;
76818;SDS011;65772;51.096;17.006;2023-06-14T13:47:03;10.40;;;4.60;;
76818;SDS011;65772;51.096;17.006;2023-06-14T13:49:34;7.90;;;4.60;;
76818;SDS011;65772;51.096;17.006;2023-06-14T13:52:06;8.60;;;4.20;;
76818;SDS011;65772;51.096;17.006;2023-06-14T13:54:36;8.00;;;5.00;;
76818;SDS011;65772;51.096;17.006;2023-06-14T13:57:07;7.70;;;4.60;;
76818;SDS011;65772;51.096;17.006;2023-06-14T13:59:40;8.70;;;4.10;;
76818;SDS011;65772;51.096;17.006;2023-06-14T14:02:13;6.00;;;3.50;;
76818;SDS011;65772;51.096;17.006;2023-06-14T14:04:43;9.90;;;4.30;;
76818;SDS011;65772;51.096;17.006;2023-06-14T14:07:19;9.60;;;4.30;;
76818;SDS011;65772;51.096;17.006;2023-06-14T14:09:50;8.10;;;4.10;;
76818;SDS011;65772;51.096;17.006;2023-06-14T14:12:21;6.90;;;4.20;;
76818;SDS011;65772;51.096;17.006;2023-06-14T14:14:53;8.60;;;4.30;;
76818;SDS011;65772;51.096;17.006;2023-06-14T14:17:23;6.60;;;4.10;;
76818;SDS011;65772;51.096;17.006;2023-06-14T14:19:54;7.60;;;4.30;;
76818;SDS011;65772;51.096;17.006;2023-06-14T14:22:25;8.00;;;4.50;;
76818;SDS011;65772;51.096;17.006;2023-06-14T14:24:55;10.10;;;4.90;;
76818;SDS011;65772;51.096;17.006;2023-06-14T14:27:26;7.00;;;4.50;;
76818;SDS011;65772;51.096;17.006;2023-06-14T14:29:56;9.90;;;4.40;;
76818;SDS011;65772;51.096;17.006;2023-06-14T14:32:27;7.00;;;4.10;;
76818;SDS011;65772;51.096;17.006;2023-06-14T14:34:58;8.40;;;4.20;;
76818;SDS011;65772;51.096;17.006;2023-06-14T14:37:28;8.40;;;3.60;;
76818;SDS011;65772;51.096;17.006;2023-06-14T14:39:59;8.20;;;3.90;;
76818;SDS011;65772;51.096;17.006;2023-06-14T14:42:30;6.00;;;3.20;;
76818;SDS011;65772;51.096;17.006;2023-06-14T14:45:01;6.90;;;3.50;;
76818;SDS011;65772;51.096;17.006;2023-06-14T14:47:32;5.90;;;3.10;;
76818;SDS011;65772;51.096;17.006;2023-06-14T14:50:03;7.20;;;3.40;;
76818;SDS011;65772;51.096;17.006;2023-06-14T14:52:36;7.90;;;3.40;;
76818;SDS011;65772;51.096;17.006;2023-06-14T14:55:08;6.10;;;3.10;;
76818;SDS011;65772;51.096;17.006;2023-06-14T14:57:38;6.20;;;3.10;;
76818;SDS011;65772;51.096;17.006;2023-06-14T15:00:09;5.50;;;3.50;;
76818;SDS011;65772;51.096;17.006;2023-06-14T15:02:41;10.30;;;4.60;;
76818;SDS011;65772;51.096;17.006;2023-06-14T15:05:12;5.90;;;3.60;;
76818;SDS011;65772;51.096;17.006;2023-06-14T15:07:42;8.80;;;3.60;;
76818;SDS011;65772;51.096;17.006;2023-06-14T15:10:13;8.00;;;3.70;;
76818;SDS011;65772;51.096;17.006;2023-06-14T15:12:44;7.70;;;3.90;;
76818;SDS011;65772;51.096;17.006;2023-06-14T15:15:15;9.70;;;3.70;;
76818;SDS011;65772;51.096;17.006;2023-06-14T15:17:46;9.90;;;4.40;;
76818;SDS011;65772;51.096;17.006;2023-06-14T15:20:16;6.40;;;4.20;;
76818;SDS011;65772;51.096;17.006;2023-06-14T15:22:47;6.40;;;4.40;;
76818;SDS011;65772;51.096;17.006;2023-06-14T15:25:17;6.50;;;4.60;;
76818;SDS011;65772;51.096;17.006;2023-06-14T15:27:49;7.30;;;4.50;;
76818;SDS011;65772;51.096;17.006;2023-06-14T15:30:19;11.20;;;5.20;;